Time;durP1;ratioP1;P1;durP2;ratioP2;P2;SDS_P1;SDS_P2;PMS_P1;PMS_P2;Temp;Humidity;BMP_temperature;BMP_pressure;BME280_temperature;BME280_humidity;BME280_pressure;Samples;Min_cycle;Max_cycle;Signal;HPM_P1;HPM_P2
2022/09/29 00:01:08;;;;;;;3.67;3.47;;;9.80;99.90;;;;;;5083043;28;20454;-83
2022/09/29 00:03:38;;;;;;;4.10;3.90;;;9.60;1.00;;;;;;5087791;28;20454;-84
2022/09/29 00:06:12;;;;;;;3.90;3.50;;;9.60;1.00;;;;;;5074953;28;20466;-84
2022/09/29 00:08:40;;;;;;;3.93;3.63;;;9.60;99.90;;;;;;5082664;28;21056;-86
2022/09/29 00:11:09;;;;;;;4.50;3.40;;;9.60;1.00;;;;;;5079695;28;20454;-85
2022/09/29 00:13:38;;;;;;;3.73;3.53;;;9.60;99.90;;;;;;5086623;28;20457;-85
2022/09/29 00:16:06;;;;;;;3.87;3.60;;;9.50;99.90;;;;;;5078520;28;20531;-86
2022/09/29 00:18:35;;;;;;;4.40;4.10;;;9.40;1.00;;;;;;5081864;28;20675;-85
2022/09/29 00:21:07;;;;;;;4.03;3.53;;;9.50;99.90;;;;;;5080897;28;20502;-86
2022/09/29 00:23:36;;;;;;;4.70;4.30;;;9.50;34.40;;;;;;5080121;28;20447;-85
2022/09/29 00:26:07;;;;;;;3.77;3.37;;;9.60;99.90;;;;;;5074569;28;20475;-86
2022/09/29 00:28:38;;;;;;;3.83;3.63;;;9.60;99.90;;;;;;5079699;28;20452;-86
2022/09/29 00:31:08;;;;;;;3.73;3.43;;;9.50;99.90;;;;;;5078092;28;20515;-86
2022/09/29 00:33:37;;;;;;;3.50;3.20;;;9.60;1.00;;;;;;5070952;28;20463;-86
2022/09/29 00:36:11;;;;;;;4.33;4.00;;;9.50;99.90;;;;;;5077999;28;20473;-85
2022/09/29 00:38:41;;;;;;;4.10;3.80;;;9.50;99.90;;;;;;5078644;28;20477;-86
2022/09/29 00:41:16;;;;;;;3.70;3.60;;;9.40;1.00;;;;;;5072768;28;20457;-85
2022/09/29 00:43:50;;;;;;;4.00;3.80;;;9.40;99.90;;;;;;5077620;28;20545;-84
2022/09/29 00:46:22;;;;;;;4.27;4.07;;;9.50;99.90;;;;;;5078686;28;20476;-85
2022/09/29 00:48:52;;;;;;;3.60;3.40;;;9.50;95.90;;;;;;5073850;28;20457;-84
2022/09/29 00:51:21;;;;;;;4.10;3.80;;;9.50;99.90;;;;;;5077877;28;20457;-84
2022/09/29 00:53:50;;;;;;;3.80;3.60;;;9.50;1.00;;;;;;5074563;28;20453;-85
2022/09/29 00:56:19;;;;;;;5.57;4.63;;;9.50;99.90;;;;;;5077910;28;20468;-84
2022/09/29 00:58:53;;;;;;;4.80;4.50;;;9.60;1.00;;;;;;5073235;28;21142;-85
2022/09/29 01:01:23;;;;;;;4.87;4.57;;;9.60;1.00;;;;;;5074378;28;20938;-84
2022/09/29 01:03:57;;;;;;;4.73;4.33;;;9.50;1.00;;;;;;5072419;28;20448;-84
2022/09/29 01:06:31;;;;;;;4.73;4.33;;;9.50;84.30;;;;;;5072671;28;20477;-84
2022/09/29 01:09:02;;;;;;;4.60;4.30;;;9.70;1.00;;;;;;5073012;28;21136;-83
2022/09/29 01:11:30;;;;;;;3.87;3.63;;;9.60;30.40;;;;;;5072559;28;20490;-84
2022/09/29 01:14:02;;;;;;;3.80;3.50;;;9.60;99.90;;;;;;5084006;28;20803;-85
2022/09/29 01:16:31;;;;;;;4.53;4.13;;;9.70;99.90;;;;;;5081570;28;20509;-83
2022/09/29 01:19:01;;;;;;;3.83;3.63;;;9.80;99.90;;;;;;5076479;28;20451;-84
2022/09/29 01:21:40;;;;;;;3.97;3.77;;;9.80;99.90;;;;;;5083147;28;20497;-84
2022/09/29 01:24:38;;;;;;;3.90;3.70;;;9.90;22.00;;;;;;5082931;28;20461;-85
2022/09/29 01:27:23;;;;;;;4.43;4.00;;;10.00;23.20;;;;;;5077763;28;20511;-85
2022/09/29 01:30:19;;;;;;;4.10;3.90;;;9.90;1.00;;;;;;5079571;28;20442;-84
2022/09/29 01:33:01;;;;;;;3.00;2.80;;;9.90;1.00;;;;;;5075958;28;20538;-84
2022/09/29 01:35:40;;;;;;;3.90;3.60;;;9.90;1.00;;;;;;5077322;28;20471;-85
2022/09/29 01:38:20;;;;;;;3.27;3.17;;;9.90;99.90;;;;;;5080074;28;20478;-83
2022/09/29 01:40:54;;;;;;;4.40;4.10;;;9.80;1.00;;;;;;5078218;28;20526;-85
2022/09/29 01:43:28;;;;;;;3.60;3.27;;;9.80;29.50;;;;;;5076801;28;20453;-84
2022/09/29 01:46:01;;;;;;;3.43;3.23;;;9.80;1.00;;;;;;5073403;28;20585;-85
2022/09/29 01:48:36;;;;;;;4.33;3.97;;;9.80;6.10;;;;;;5077732;28;20442;-84
2022/09/29 01:51:09;;;;;;;4.20;3.90;;;9.90;1.00;;;;;;5078627;28;20450;-85
2022/09/29 01:53:42;;;;;;;4.27;4.07;;;9.80;1.00;;;;;;5082317;28;20479;-85
2022/09/29 01:56:16;;;;;;;3.83;3.63;;;9.80;1.00;;;;;;5082259;28;20807;-85
2022/09/29 01:58:51;;;;;;;3.60;3.40;;;9.80;99.90;;;;;;5077925;28;20564;-84
2022/09/29 02:01:21;;;;;;;4.57;3.77;;;9.90;99.90;;;;;;5079183;28;20723;-83
2022/09/29 02:03:56;;;;;;;3.63;3.53;;;9.80;1.00;;;;;;5088962;28;20445;-84
2022/09/29 02:06:30;;;;;;;3.70;3.40;;;9.70;99.90;;;;;;5077688;28;20470;-83
2022/09/29 02:09:02;;;;;;;3.63;3.43;;;9.80;99.90;;;;;;5085086;28;20438;-84
2022/09/29 02:11:33;;;;;;;3.73;3.60;;;9.80;99.90;;;;;;5077724;28;20454;-85
2022/09/29 02:14:08;;;;;;;4.00;3.70;;;9.80;1.00;;;;;;5087370;28;20515;-84
2022/09/29 02:16:41;;;;;;;3.87;3.60;;;9.90;99.90;;;;;;5079056;28;20503;-85
2022/09/29 02:19:16;;;;;;;4.37;4.07;;;9.90;99.90;;;;;;5078947;28;20482;-85
2022/09/29 02:21:44;;;;;;;3.60;3.30;;;9.80;99.90;;;;;;5082650;28;20456;-85
2022/09/29 02:24:13;;;;;;;3.87;3.67;;;9.80;99.90;;;;;;5084116;28;20494;-85
2022/09/29 02:26:44;;;;;;;3.90;3.60;;;9.80;99.90;;;;;;5082119;28;20472;-85
2022/09/29 02:29:12;;;;;;;3.47;3.37;;;9.80;1.00;;;;;;5080488;28;20516;-85
2022/09/29 02:31:40;;;;;;;3.53;3.33;;;9.80;34.10;;;;;;5075041;28;20995;-85
2022/09/29 02:34:13;;;;;;;3.57;3.27;;;9.70;99.90;;;;;;5075998;28;20501;-84
2022/09/29 02:36:53;;;;;;;4.70;3.77;;;9.60;1.00;;;;;;5083694;28;21000;-84
2022/09/29 02:39:34;;;;;;;3.33;3.23;;;9.60;1.00;;;;;;5081490;28;20542;-84
2022/09/29 02:42:12;;;;;;;12.20;11.50;;;9.60;99.90;;;;;;5075450;28;20453;-84
2022/09/29 02:44:56;;;;;;;3.63;3.47;;;9.60;1.00;;;;;;5082707;28;21041;-84
2022/09/29 02:47:37;;;;;;;3.20;3.10;;;9.50;1.00;;;;;;5073252;28;20936;-84
2022/09/29 02:50:24;;;;;;;4.07;3.70;;;9.50;99.90;;;;;;5079566;28;20456;-85
2022/09/29 02:53:00;;;;;;;3.13;3.03;;;9.50;1.00;;;;;;5082467;28;20541;-84
2022/09/29 02:55:38;;;;;;;4.00;3.80;;;9.70;1.00;;;;;;5081340;28;21036;-85
2022/09/29 02:58:13;;;;;;;3.83;3.63;;;9.60;1.00;;;;;;5077370;28;20472;-84
2022/09/29 03:00:42;;;;;;;3.90;3.60;;;9.60;99.90;;;;;;5074777;28;20539;-83
2022/09/29 03:03:11;;;;;;;3.57;3.47;;;9.50;99.90;;;;;;5075109;28;20526;-83
2022/09/29 03:05:40;;;;;;;4.43;4.03;;;9.60;99.90;;;;;;5081384;28;20543;-83
2022/09/29 03:08:09;;;;;;;3.63;3.43;;;9.60;99.90;;;;;;5080164;28;20459;-84
2022/09/29 03:10:37;;;;;;;3.70;3.40;;;9.60;1.00;;;;;;5083404;28;20522;-84
2022/09/29 03:13:05;;;;;;;3.70;3.60;;;9.50;1.00;;;;;;5083977;28;20486;-84
2022/09/29 03:15:33;;;;;;;3.67;3.53;;;9.50;1.00;;;;;;5084767;28;20544;-83
2022/09/29 03:18:03;;;;;;;4.13;3.93;;;9.50;1.00;;;;;;5081620;28;20534;-83
2022/09/29 03:20:36;;;;;;;4.10;3.90;;;9.50;1.00;;;;;;5080316;28;20473;-84
2022/09/29 03:23:06;;;;;;;3.60;3.40;;;9.50;1.00;;;;;;5073764;28;20451;-82
2022/09/29 03:25:34;;;;;;;3.50;3.40;;;9.60;1.00;;;;;;5079875;28;20492;-84
2022/09/29 03:28:03;;;;;;;3.50;3.30;;;9.60;1.00;;;;;;5077247;28;20455;-83
2022/09/29 03:30:31;;;;;;;3.87;3.60;;;9.50;1.00;;;;;;5079503;28;20463;-83
2022/09/29 03:32:59;;;;;;;3.60;3.43;;;9.50;1.00;;;;;;5081829;28;20547;-83
2022/09/29 03:35:27;;;;;;;4.20;4.00;;;9.50;1.00;;;;;;5081822;28;20541;-84
2022/09/29 03:37:58;;;;;;;3.90;3.70;;;9.50;30.70;;;;;;5080977;28;21109;-84
2022/09/29 03:40:28;;;;;;;3.60;3.30;;;9.40;99.90;;;;;;5078604;28;20469;-84
2022/09/29 03:42:56;;;;;;;4.20;4.00;;;9.40;42.50;;;;;;5075978;28;20462;-85
2022/09/29 03:45:25;;;;;;;3.40;3.30;;;9.40;1.00;;;;;;5076360;28;20465;-84
2022/09/29 03:47:53;;;;;;;3.80;3.60;;;9.50;1.00;;;;;;5082031;28;20448;-85
2022/09/29 03:50:21;;;;;;;5.53;5.33;;;9.40;1.00;;;;;;5077680;28;20463;-84
2022/09/29 03:52:49;;;;;;;3.93;3.83;;;9.30;1.00;;;;;;5081513;28;20453;-84
2022/09/29 03:55:17;;;;;;;5.20;4.70;;;9.20;1.00;;;;;;5078444;28;20472;-85
2022/09/29 03:57:47;;;;;;;7.23;5.37;;;9.20;1.00;;;;;;5078481;28;20446;-85
2022/09/29 04:00:16;;;;;;;6.70;6.20;;;9.10;99.90;;;;;;5076337;28;20467;-84
2022/09/29 04:02:44;;;;;;;6.07;5.67;;;9.00;1.00;;;;;;5073953;28;20447;-85
2022/09/29 04:05:12;;;;;;;5.43;4.90;;;9.10;1.00;;;;;;5077719;28;20464;-84
2022/09/29 04:07:40;;;;;;;4.67;4.33;;;9.00;1.00;;;;;;5082902;28;20490;-84
2022/09/29 04:10:09;;;;;;;6.83;6.13;;;8.90;1.00;;;;;;5078170;28;20986;-84
2022/09/29 04:12:38;;;;;;;4.43;4.13;;;8.80;1.00;;;;;;5077432;28;20460;-83
2022/09/29 04:15:09;;;;;;;4.90;4.60;;;8.80;1.00;;;;;;5078057;28;20470;-84
2022/09/29 04:17:37;;;;;;;4.90;4.50;;;8.80;99.90;;;;;;5085077;28;20540;-84
2022/09/29 04:20:06;;;;;;;3.97;3.77;;;8.80;99.90;;;;;;5081969;28;20479;-84
2022/09/29 04:22:34;;;;;;;5.43;4.87;;;8.70;1.00;;;;;;5081940;28;21260;-84
2022/09/29 04:25:03;;;;;;;4.60;4.30;;;8.70;1.00;;;;;;5077160;28;20460;-83
2022/09/29 04:27:31;;;;;;;4.20;4.00;;;8.70;99.90;;;;;;5082026;28;20454;-84
2022/09/29 04:30:00;;;;;;;3.90;3.80;;;8.70;99.90;;;;;;5080124;28;20480;-84
2022/09/29 04:32:29;;;;;;;5.47;4.40;;;8.60;99.90;;;;;;5084494;28;20446;-84
2022/09/29 04:34:58;;;;;;;3.80;3.60;;;8.60;1.00;;;;;;5075597;28;20952;-85
2022/09/29 04:37:26;;;;;;;3.73;3.47;;;8.60;1.00;;;;;;5077948;28;20488;-85
2022/09/29 04:39:55;;;;;;;3.90;3.70;;;8.60;1.00;;;;;;5071097;28;20482;-85
2022/09/29 04:42:23;;;;;;;3.87;3.57;;;8.60;99.90;;;;;;5078511;28;20467;-85
2022/09/29 04:44:52;;;;;;;3.73;3.53;;;8.60;99.90;;;;;;5080228;28;20506;-84
2022/09/29 04:47:20;;;;;;;4.33;3.93;;;8.60;99.90;;;;;;5072660;28;20474;-85
2022/09/29 04:49:50;;;;;;;3.70;3.50;;;8.50;1.00;;;;;;5079549;28;20951;-85
2022/09/29 04:52:18;;;;;;;3.77;3.57;;;8.50;99.90;;;;;;5074382;28;20457;-85
2022/09/29 04:54:46;;;;;;;3.90;3.70;;;8.50;1.00;;;;;;5079751;28;20492;-85
2022/09/29 04:57:14;;;;;;;4.60;4.40;;;8.60;49.30;;;;;;5089670;28;20472;-86
2022/09/29 04:59:43;;;;;;;4.70;4.47;;;8.60;67.60;;;;;;5078875;28;20491;-85
2022/09/29 05:02:11;;;;;;;4.60;4.40;;;8.60;99.90;;;;;;5080959;28;20473;-85
2022/09/29 05:04:39;;;;;;;5.53;4.60;;;8.60;24.30;;;;;;5079537;28;20649;-86
2022/09/29 05:07:09;;;;;;;4.33;4.13;;;8.50;1.00;;;;;;5081915;28;21019;-84
2022/09/29 05:09:37;;;;;;;4.90;4.60;;;8.50;32.40;;;;;;5080125;28;20503;-84
2022/09/29 05:12:06;;;;;;;5.13;4.83;;;8.60;1.00;;;;;;5083236;28;20455;-84
2022/09/29 05:14:34;;;;;;;5.13;4.43;;;8.60;1.00;;;;;;5085231;28;20456;-85
2022/09/29 05:17:03;;;;;;;4.30;4.00;;;8.50;1.00;;;;;;5082085;28;20497;-84
2022/09/29 05:19:31;;;;;;;5.27;4.77;;;8.50;1.00;;;;;;5082807;28;20483;-80
2022/09/29 05:22:00;;;;;;;4.93;4.47;;;8.50;1.00;;;;;;5074984;28;20461;-85
2022/09/29 05:24:30;;;;;;;4.63;4.27;;;8.60;99.90;;;;;;5077350;28;20532;-85
2022/09/29 05:26:58;;;;;;;9.63;5.40;;;8.60;22.20;;;;;;5074302;28;20478;-85
2022/09/29 05:29:26;;;;;;;6.47;5.97;;;8.60;95.00;;;;;;5077131;28;20454;-84
2022/09/29 05:31:55;;;;;;;5.40;5.00;;;8.70;99.90;;;;;;5084214;28;20542;-84
2022/09/29 05:34:23;;;;;;;4.90;4.43;;;8.70;29.70;;;;;;5080707;28;20456;-85
2022/09/29 05:36:52;;;;;;;6.30;5.70;;;8.60;94.50;;;;;;5085759;28;21022;-83
2022/09/29 05:39:20;;;;;;;5.67;5.13;;;8.70;99.90;;;;;;5086503;28;20496;-82
2022/09/29 05:41:50;;;;;;;4.97;4.63;;;8.70;99.90;;;;;;5079406;28;20489;-83
2022/09/29 05:44:19;;;;;;;4.03;3.83;;;8.60;1.00;;;;;;5082031;28;20449;-85
2022/09/29 05:46:47;;;;;;;4.20;3.93;;;8.50;99.90;;;;;;5078899;28;20491;-85
2022/09/29 05:49:18;;;;;;;4.37;4.07;;;8.50;99.90;;;;;;5085178;28;20454;-84
2022/09/29 05:51:46;;;;;;;4.43;4.00;;;8.50;91.50;;;;;;5084546;28;20470;-84
2022/09/29 05:54:14;;;;;;;3.80;3.40;;;8.40;99.90;;;;;;5086560;28;20494;-85
2022/09/29 05:56:43;;;;;;;4.50;4.20;;;8.50;82.30;;;;;;5086568;28;20480;-85
2022/09/29 05:59:14;;;;;;;4.63;4.23;;;8.50;99.90;;;;;;5077151;28;20458;-85
2022/09/29 06:01:42;;;;;;;4.73;4.43;;;8.50;1.00;;;;;;5074922;28;20456;-86
2022/09/29 06:04:11;;;;;;;5.30;4.90;;;8.60;1.00;;;;;;5085606;28;20469;-85
2022/09/29 06:06:39;;;;;;;4.43;4.10;;;8.60;1.00;;;;;;5086610;28;20493;-85
2022/09/29 06:09:08;;;;;;;4.77;4.47;;;8.50;1.00;;;;;;5087854;28;20448;-85
2022/09/29 06:11:36;;;;;;;5.60;5.20;;;8.60;1.00;;;;;;5083813;28;20459;-85
2022/09/29 06:14:05;;;;;;;4.00;3.70;;;8.60;27.00;;;;;;5088665;28;20488;-85
2022/09/29 06:16:35;;;;;;;5.57;5.10;;;8.70;21.30;;;;;;5085237;28;20479;-85
2022/09/29 06:19:04;;;;;;;4.63;4.40;;;8.80;99.90;;;;;;5080294;28;20451;-85
2022/09/29 06:21:34;;;;;;;5.40;4.40;;;8.80;99.90;;;;;;5087788;28;20450;-84
2022/09/29 06:24:02;;;;;;;5.03;4.83;;;8.80;99.90;;;;;;5080857;28;20455;-84
2022/09/29 06:26:31;;;;;;;6.53;6.03;;;8.80;99.90;;;;;;5084623;28;20480;-83
2022/09/29 06:28:59;;;;;;;6.73;5.80;;;9.00;99.90;;;;;;5081292;28;20914;-84
2022/09/29 06:31:29;;;;;;;5.80;5.33;;;8.90;99.90;;;;;;5089918;28;20485;-84
2022/09/29 06:34:01;;;;;;;6.90;6.43;;;8.90;99.90;;;;;;5090740;28;20554;-84
2022/09/29 06:39:17;;;;;;;9.70;7.60;;;9.10;46.30;;;;;;5079599;28;20459;-84
2022/09/29 06:41:50;;;;;;;7.67;6.93;;;9.10;1.00;;;;;;5079213;28;20560;-84
2022/09/29 06:44:19;;;;;;;7.07;6.40;;;9.10;99.90;;;;;;5087356;28;20444;-83
2022/09/29 06:46:48;;;;;;;8.50;7.90;;;9.10;99.90;;;;;;5078976;28;20484;-84
2022/09/29 06:49:17;;;;;;;7.37;6.97;;;9.20;99.90;;;;;;5083384;28;20458;-84
2022/09/29 06:51:46;;;;;;;11.03;7.20;;;9.20;99.90;;;;;;5083764;28;20478;-85
2022/09/29 06:54:16;;;;;;;8.40;7.57;;;9.30;99.60;;;;;;5079654;28;20459;-83
2022/09/29 06:56:47;;;;;;;10.43;8.03;;;9.40;1.00;;;;;;5074495;28;20534;-84
2022/09/29 06:59:15;;;;;;;9.23;8.33;;;9.50;1.00;;;;;;5074709;28;20452;-85
2022/09/29 07:01:48;;;;;;;9.67;8.80;;;9.60;1.00;;;;;;5081500;28;20560;-85
2022/09/29 07:04:21;;;;;;;10.73;8.07;;;9.50;1.00;;;;;;5078501;28;20465;-83
2022/09/29 07:06:50;;;;;;;10.77;7.70;;;9.60;99.90;;;;;;5072736;28;20479;-83
2022/09/29 07:09:19;;;;;;;8.27;7.47;;;9.70;1.00;;;;;;5082612;28;20543;-85
2022/09/29 07:11:50;;;;;;;10.00;8.20;;;9.70;99.90;;;;;;5078392;28;20462;-85
2022/09/29 07:14:21;;;;;;;9.87;8.53;;;9.70;39.10;;;;;;5082637;28;20457;-85
2022/09/29 07:16:50;;;;;;;9.20;8.50;;;9.80;30.80;;;;;;5080360;28;20480;-84
2022/09/29 07:19:20;;;;;;;9.73;8.83;;;9.90;99.90;;;;;;5081004;28;20476;-84
2022/09/29 07:21:50;;;;;;;12.93;9.13;;;9.90;99.90;;;;;;5076220;28;20476;-83
2022/09/29 07:24:18;;;;;;;9.50;8.80;;;9.70;1.00;;;;;;5084128;28;20467;-84
2022/09/29 07:26:46;;;;;;;9.93;8.90;;;9.70;1.00;;;;;;5082131;28;20474;-84
2022/09/29 07:29:15;;;;;;;10.07;9.10;;;9.60;99.90;;;;;;5083670;28;20806;-82
2022/09/29 07:31:44;;;;;;;8.67;8.07;;;9.60;1.00;;;;;;5080698;28;20461;-84
2022/09/29 07:34:20;;;;;;;9.10;8.30;;;9.70;1.00;;;;;;5088720;28;20530;-84
2022/09/29 07:36:49;;;;;;;8.40;7.63;;;9.80;1.00;;;;;;5091291;28;20897;-85
2022/09/29 07:39:19;;;;;;;7.83;7.13;;;9.70;1.00;;;;;;5079068;28;20458;-84
2022/09/29 07:41:48;;;;;;;8.77;7.90;;;9.70;1.00;;;;;;5082625;28;20470;-85
2022/09/29 07:44:16;;;;;;;8.30;7.73;;;9.70;99.90;;;;;;5083337;28;20460;-85
2022/09/29 07:46:45;;;;;;;8.10;7.47;;;9.80;89.10;;;;;;5089252;28;20473;-84
2022/09/29 07:49:13;;;;;;;8.53;7.93;;;9.90;1.00;;;;;;5087219;28;20773;-84
2022/09/29 07:51:43;;;;;;;9.90;9.20;;;9.90;55.80;;;;;;5094542;28;20961;-85
2022/09/29 07:54:11;;;;;;;9.33;8.73;;;10.10;1.00;;;;;;5073375;28;20449;-84
2022/09/29 07:56:39;;;;;;;9.37;8.47;;;10.10;1.00;;;;;;5091055;28;20499;-84
2022/09/29 07:59:10;;;;;;;8.97;8.40;;;10.30;1.00;;;;;;5083626;28;20460;-86
2022/09/29 08:01:38;;;;;;;8.40;7.77;;;10.30;1.00;;;;;;5075201;28;20482;-84
2022/09/29 08:04:07;;;;;;;9.67;8.97;;;10.40;99.90;;;;;;5081090;28;20465;-85
2022/09/29 08:06:35;;;;;;;8.97;8.30;;;10.60;99.90;;;;;;5077371;28;20553;-84
2022/09/29 08:09:05;;;;;;;8.60;8.10;;;10.60;23.40;;;;;;5087408;28;20465;-84
2022/09/29 08:11:37;;;;;;;8.87;8.30;;;10.60;1.00;;;;;;5091492;28;20472;-83
2022/09/29 08:14:05;;;;;;;7.90;7.40;;;10.60;99.90;;;;;;5090091;28;20603;-84
2022/09/29 08:16:34;;;;;;;8.00;7.50;;;10.60;1.00;;;;;;5092765;28;20466;-84
2022/09/29 08:19:04;;;;;;;8.23;7.80;;;10.60;99.90;;;;;;5092810;28;20457;-84
2022/09/29 08:21:35;;;;;;;7.80;7.30;;;10.60;1.00;;;;;;5091224;28;20565;-84
2022/09/29 08:24:06;;;;;;;7.37;6.90;;;10.80;99.90;;;;;;5084337;28;20465;-85
2022/09/29 08:26:36;;;;;;;7.50;7.10;;;10.90;1.00;;;;;;5094336;28;20543;-84
2022/09/29 08:29:12;;;;;;;7.27;6.87;;;11.00;1.00;;;;;;5091498;28;20818;-84
2022/09/29 08:31:44;;;;;;;6.93;6.63;;;11.10;99.90;;;;;;5092414;28;20458;-85
2022/09/29 08:34:13;;;;;;;7.00;6.60;;;11.20;13.60;;;;;;5093825;28;20544;-84
2022/09/29 08:36:42;;;;;;;6.40;6.17;;;11.40;99.90;;;;;;5083206;28;20485;-84
2022/09/29 08:39:13;;;;;;;6.60;6.20;;;11.60;1.00;;;;;;5082423;28;20447;-84
2022/09/29 08:41:52;;;;;;;6.70;6.40;;;11.90;1.00;;;;;;5071038;28;20565;-86
2022/09/29 08:44:29;;;;;;;6.57;6.27;;;11.90;99.90;;;;;;5079262;28;20513;-83
2022/09/29 08:47:15;;;;;;;6.03;5.83;;;11.90;99.90;;;;;;5089703;28;20918;-84
2022/09/29 08:49:47;;;;;;;6.50;6.10;;;12.00;99.90;;;;;;5084997;28;20456;-85
2022/09/29 08:52:20;;;;;;;5.67;5.47;;;12.20;99.90;;;;;;5086907;28;20837;-84
2022/09/29 08:54:54;;;;;;;6.13;5.93;;;12.40;94.40;;;;;;5081741;28;20461;-84
2022/09/29 08:57:23;;;;;;;5.97;5.67;;;12.50;1.00;;;;;;5088287;28;20466;-85
2022/09/29 08:59:54;;;;;;;5.07;4.87;;;12.60;1.00;;;;;;5086400;28;20998;-85
2022/09/29 09:02:53;;;;;;;5.90;5.43;;;12.40;1.00;;;;;;5089611;28;20474;-84
2022/09/29 09:05:47;;;;;;;4.33;4.23;;;12.40;1.00;;;;;;5090067;28;20456;-85
2022/09/29 09:08:38;;;;;;;4.43;4.30;;;12.30;1.00;;;;;;5078982;28;20489;-84
2022/09/29 09:11:22;;;;;;;5.03;4.73;;;12.20;1.00;;;;;;5086555;28;20454;-85
2022/09/29 09:14:05;;;;;;;4.30;4.10;;;12.20;1.00;;;;;;5089272;28;20462;-85
2022/09/29 09:16:41;;;;;;;5.00;4.70;;;12.10;1.00;;;;;;5082896;28;20475;-85
2022/09/29 09:19:43;;;;;;;3.90;3.70;;;12.10;1.00;;;;;;5077848;28;20993;-85
2022/09/29 09:22:21;;;;;;;4.30;4.20;;;11.80;1.00;;;;;;5093548;28;20537;-85
2022/09/29 09:24:57;;;;;;;4.40;4.07;;;11.80;26.40;;;;;;5083484;28;20514;-85
2022/09/29 09:27:31;;;;;;;5.33;5.03;;;11.90;1.00;;;;;;5093889;28;20465;-85
2022/09/29 09:30:05;;;;;;;5.17;4.87;;;11.90;1.00;;;;;;5082088;28;20548;-85
2022/09/29 09:32:39;;;;;;;5.37;5.10;;;11.90;1.60;;;;;;5088468;28;20475;-85
2022/09/29 09:35:22;;;;;;;5.10;4.80;;;12.00;6.00;;;;;;5088287;28;20493;-86
2022/09/29 09:37:53;;;;;;;5.07;4.77;;;12.00;99.90;;;;;;5077514;28;20458;-84
2022/09/29 09:40:26;;;;;;;4.90;4.70;;;12.10;1.00;;;;;;5078864;28;20538;-85
2022/09/29 09:43:03;;;;;;;5.10;4.63;;;12.20;5.00;;;;;;5072799;28;20987;-86
2022/09/29 09:45:34;;;;;;;4.90;4.70;;;12.20;1.00;;;;;;5088424;28;21018;-84
2022/09/29 09:48:07;;;;;;;6.00;5.60;;;12.50;1.00;;;;;;5086388;28;20472;-84
2022/09/29 09:50:41;;;;;;;4.90;4.70;;;12.60;1.00;;;;;;5077684;28;20486;-84
2022/09/29 09:53:15;;;;;;;5.30;5.10;;;12.90;1.00;;;;;;5085726;28;21004;-84
2022/09/29 09:55:44;;;;;;;5.17;4.90;;;13.30;1.00;;;;;;5086004;28;20466;-85
2022/09/29 09:58:36;;;;;;;5.27;5.07;;;13.40;1.00;;;;;;5079291;28;20454;-85
2022/09/29 10:01:06;;;;;;;5.47;5.07;;;13.40;1.00;;;;;;5081034;28;20457;-85
2022/09/29 10:03:37;;;;;;;4.73;4.53;;;13.10;1.00;;;;;;5091572;28;20442;-85
2022/09/29 10:06:08;;;;;;;4.80;4.60;;;13.10;1.00;;;;;;5088686;28;20556;-86
2022/09/29 10:08:39;;;;;;;4.67;4.40;;;13.00;1.00;;;;;;5088482;28;20857;-85
2022/09/29 10:11:21;;;;;;;4.87;4.57;;;12.90;1.00;;;;;;5079994;28;20835;-87
2022/09/29 10:13:58;;;;;;;4.50;4.30;;;12.90;1.00;;;;;;5080119;28;20930;-85
2022/09/29 10:16:35;;;;;;;4.00;3.70;;;12.90;1.00;;;;;;5081826;28;20462;-85
2022/09/29 10:19:05;;;;;;;3.47;3.37;;;13.20;99.90;;;;;;5086014;28;20483;-85
2022/09/29 10:21:38;;;;;;;4.40;3.77;;;13.60;99.90;;;;;;5073599;28;20952;-85
2022/09/29 10:24:21;;;;;;;3.50;3.30;;;13.80;99.90;;;;;;5080529;28;21061;-85
2022/09/29 10:26:54;;;;;;;3.80;3.60;;;13.90;99.90;;;;;;5077759;28;20528;-83
2022/09/29 10:29:29;;;;;;;6.23;3.43;;;14.20;99.90;;;;;;5073570;28;20996;-86
2022/09/29 10:32:01;;;;;;;3.10;2.90;;;14.10;99.90;;;;;;5081272;28;20486;-85
2022/09/29 10:34:30;;;;;;;3.30;3.10;;;14.00;99.90;;;;;;5077196;28;20443;-86
2022/09/29 10:37:01;;;;;;;3.03;2.93;;;13.90;99.90;;;;;;5075644;28;20912;-85
2022/09/29 10:39:42;;;;;;;2.90;2.70;;;14.00;99.90;;;;;;5074822;28;20506;-84
2022/09/29 10:42:20;;;;;;;2.90;2.70;;;14.80;99.90;;;;;;5072904;28;20873;-85
2022/09/29 10:44:53;;;;;;;2.53;2.33;;;14.50;99.90;;;;;;5079769;28;20526;-85
2022/09/29 10:47:23;;;;;;;2.40;2.30;;;14.20;99.90;;;;;;5082591;28;21164;-85
2022/09/29 10:50:13;;;;;;;2.30;2.20;;;13.80;99.90;;;;;;5076800;28;20480;-86
2022/09/29 10:52:44;;;;;;;2.43;2.23;;;13.70;99.90;;;;;;5076412;28;20476;-85
2022/09/29 10:55:21;;;;;;;2.40;2.30;;;13.50;99.90;;;;;;5081973;28;20450;-85
2022/09/29 10:57:51;;;;;;;2.40;2.30;;;13.40;99.90;;;;;;5076623;28;20551;-86
2022/09/29 11:00:29;;;;;;;2.60;2.40;;;13.30;99.90;;;;;;5078135;28;20756;-87
2022/09/29 11:03:05;;;;;;;2.60;2.40;;;13.10;99.90;;;;;;5075077;28;20489;-85
2022/09/29 11:05:34;;;;;;;2.40;2.30;;;13.20;99.90;;;;;;5078145;28;20480;-86
2022/09/29 11:08:02;;;;;;;2.40;2.30;;;13.30;99.90;;;;;;5080283;28;20502;-85
2022/09/29 11:10:34;;;;;;;2.57;2.47;;;13.40;99.90;;;;;;5082887;28;20467;-85
2022/09/29 11:13:34;;;;;;;2.63;2.50;;;13.60;99.90;;;;;;5085782;28;20445;-85
2022/09/29 11:16:15;;;;;;;2.53;2.20;;;13.80;99.90;;;;;;5078590;28;20527;-84
2022/09/29 11:18:46;;;;;;;2.90;2.73;;;13.80;99.90;;;;;;5089679;28;20458;-83
2022/09/29 11:21:46;;;;;;;2.50;2.30;;;13.80;99.90;;;;;;5083125;28;20461;-84
2022/09/29 11:24:23;;;;;;;2.50;2.00;;;13.90;99.90;;;;;;5070153;28;20545;-84
2022/09/29 11:26:57;;;;;;;1.83;1.80;;;14.00;99.90;;;;;;5078167;28;20472;-84
2022/09/29 11:29:39;;;;;;;1.73;1.63;;;14.20;99.90;;;;;;5085250;28;20457;-85
2022/09/29 11:32:21;;;;;;;4.03;2.00;;;14.10;99.90;;;;;;5080220;28;20466;-84
2022/09/29 11:35:07;;;;;;;1.83;1.73;;;14.20;99.90;;;;;;5080072;28;20536;-84
2022/09/29 11:37:49;;;;;;;2.57;2.10;;;14.30;99.90;;;;;;5083080;28;20471;-85
2022/09/29 11:40:24;;;;;;;2.30;2.20;;;14.40;99.90;;;;;;5076934;28;20455;-85
2022/09/29 11:43:08;;;;;;;2.20;2.10;;;14.50;99.90;;;;;;5085044;28;20624;-84
2022/09/29 11:45:43;;;;;;;2.40;1.93;;;14.40;99.90;;;;;;5081919;28;20526;-85
2022/09/29 11:48:39;;;;;;;3.53;2.90;;;14.20;99.90;;;;;;5080245;28;20461;-85
2022/09/29 11:51:19;;;;;;;2.00;1.90;;;14.20;99.90;;;;;;5082999;28;20456;-84
2022/09/29 11:54:13;;;;;;;2.70;2.50;;;14.20;99.90;;;;;;5072387;28;20453;-85
2022/09/29 11:56:51;;;;;;;3.90;2.10;;;13.90;99.90;;;;;;5083568;28;20468;-86
2022/09/29 11:59:35;;;;;;;2.20;2.10;;;13.80;99.90;;;;;;5075486;28;20968;-86
2022/09/29 12:02:48;;;;;;;2.13;1.93;;;14.00;99.90;;;;;;5081206;28;20459;-88
2022/09/29 12:05:24;;;;;;;2.03;1.90;;;14.00;99.90;;;;;;5054504;28;20835;-86
2022/09/29 12:08:02;;;;;;;1.90;1.80;;;14.00;99.90;;;;;;5075693;28;20454;-86
2022/09/29 12:10:44;;;;;;;2.67;2.30;;;14.10;99.90;;;;;;5076213;28;20469;-85
2022/09/29 12:13:22;;;;;;;1.97;1.87;;;14.10;99.90;;;;;;5076733;28;20449;-85
2022/09/29 12:15:55;;;;;;;2.10;2.00;;;14.10;99.90;;;;;;5072103;28;21205;-83
2022/09/29 12:18:28;;;;;;;1.70;1.70;;;14.00;99.90;;;;;;5070901;28;20466;-83
2022/09/29 12:21:00;;;;;;;2.37;2.03;;;14.10;99.90;;;;;;5072409;28;20456;-84
2022/09/29 12:23:30;;;;;;;3.97;1.80;;;14.10;99.90;;;;;;5083616;28;20544;-83
2022/09/29 12:26:04;;;;;;;3.33;1.90;;;14.10;99.90;;;;;;5073441;28;20486;-83
2022/09/29 12:28:40;;;;;;;4.20;2.03;;;14.20;99.90;;;;;;5081413;28;20467;-84
2022/09/29 12:31:15;;;;;;;1.77;1.67;;;14.20;99.90;;;;;;5073475;28;20457;-83
2022/09/29 12:33:49;;;;;;;1.80;1.70;;;14.30;99.90;;;;;;5069884;28;20499;-84
2022/09/29 12:36:49;;;;;;;2.00;1.90;;;14.40;99.90;;;;;;5071431;28;20484;-83
2022/09/29 12:39:29;;;;;;;2.23;2.03;;;14.40;99.90;;;;;;5072500;28;20482;-84
2022/09/29 12:42:11;;;;;;;2.07;1.90;;;14.40;99.90;;;;;;5075881;28;20448;-84
2022/09/29 12:44:43;;;;;;;2.00;1.90;;;14.30;99.90;;;;;;5084787;28;20476;-83
2022/09/29 12:47:20;;;;;;;1.50;1.40;;;14.30;99.90;;;;;;5079437;28;21199;-83
2022/09/29 12:49:59;;;;;;;1.70;1.60;;;14.30;99.90;;;;;;5072833;28;20667;-85
2022/09/29 12:52:37;;;;;;;1.47;1.37;;;14.20;99.90;;;;;;5079135;28;20477;-84
2022/09/29 12:55:14;;;;;;;1.50;1.40;;;14.00;99.90;;;;;;5078902;28;20464;-84
2022/09/29 12:57:44;;;;;;;2.30;1.60;;;14.00;99.90;;;;;;5077270;28;20547;-84
2022/09/29 13:00:15;;;;;;;3.33;1.50;;;13.90;99.90;;;;;;5076455;28;20456;-84
2022/09/29 13:03:13;;;;;;;1.30;1.30;;;14.00;99.90;;;;;;5076428;28;20467;-84
2022/09/29 13:06:05;;;;;;;1.80;1.70;;;14.10;99.90;;;;;;5075034;28;20884;-84
2022/09/29 13:08:51;;;;;;;1.47;1.40;;;14.10;99.90;;;;;;5072034;28;20480;-84
2022/09/29 13:11:50;;;;;;;1.90;1.50;;;14.00;99.90;;;;;;5078414;28;20448;-84
2022/09/29 13:14:35;;;;;;;2.43;1.40;;;14.00;99.90;;;;;;5079006;28;20972;-84
2022/09/29 13:17:17;;;;;;;1.80;1.50;;;14.10;99.90;;;;;;5081784;28;20990;-84
2022/09/29 13:20:11;;;;;;;1.30;1.30;;;14.20;99.90;;;;;;5087791;28;20448;-84
2022/09/29 13:23:30;;;;;;;2.80;1.60;;;14.10;99.90;;;;;;5076002;28;20537;-84
2022/09/29 13:26:22;;;;;;;1.70;1.60;;;14.20;99.90;;;;;;5034585;28;20483;-83
2022/09/29 13:28:54;;;;;;;1.50;1.40;;;14.20;99.90;;;;;;5075767;28;20490;-83
2022/09/29 13:31:26;;;;;;;1.50;1.40;;;14.10;99.90;;;;;;5077352;28;20552;-83
2022/09/29 13:34:02;;;;;;;1.83;1.50;;;14.20;99.90;;;;;;5084028;28;20444;-84